createdAt,value
2023-05-22T03:36:47.471Z,83.72
2023-05-22T03:39:28.144Z,83.83
2023-05-22T03:42:34.482Z,84.13
2023-05-22T03:45:52.035Z,84.36
2023-05-22T03:48:31.410Z,84.48
2023-05-22T03:54:56.347Z,85.00
2023-05-22T04:01:49.946Z,85.72
2023-05-22T04:04:30.336Z,85.66
2023-05-22T04:10:54.576Z,86.39
2023-05-22T04:22:45.903Z,87.63
2023-05-22T04:26:20.237Z,87.90
2023-05-22T04:28:59.703Z,88.05
2023-05-22T04:31:36.037Z,88.18
2023-05-22T04:46:02.577Z,88.79
2023-05-22T04:48:43.992Z,88.80
2023-05-22T04:52:04.874Z,88.45
2023-05-22T04:59:17.309Z,88.28
2023-05-22T05:01:50.537Z,88.30
2023-05-22T05:04:28.793Z,88.21
2023-05-22T05:07:02.623Z,88.22
2023-05-22T05:09:41.689Z,88.39
2023-05-22T05:12:14.095Z,87.76
2023-05-22T05:18:40.626Z,87.23
2023-05-22T05:21:12.801Z,86.74
2023-05-22T05:23:52.138Z,85.78
2023-05-22T05:26:25.155Z,85.73
2023-05-22T05:29:04.768Z,85.00
2023-05-22T05:36:29.418Z,83.82
2023-05-22T05:40:03.355Z,83.63
2023-05-22T05:42:37.025Z,83.32
2023-05-22T05:45:12.841Z,83.29
2023-05-22T05:47:45.483Z,82.57
2023-05-22T05:50:18.213Z,82.23
2023-05-22T05:52:51.742Z,81.63
2023-05-22T05:59:53.853Z,80.98
2023-05-22T06:02:51.710Z,80.69
2023-05-22T06:06:09.443Z,79.43
2023-05-22T06:09:55.842Z,78.44
2023-05-22T06:12:51.049Z,79.25
2023-05-22T06:15:38.963Z,77.41
2023-05-22T06:18:18.168Z,76.06
2023-05-22T06:20:50.495Z,77.62
2023-05-22T06:23:28.875Z,77.87
2023-05-22T06:29:16.305Z,76.78
2023-05-22T06:31:49.081Z,73.43
2023-05-22T06:43:41.450Z,70.66
2023-05-22T06:46:43.634Z,70.52
2023-05-22T06:49:24.545Z,69.47
2023-05-22T06:52:35.189Z,68.76
2023-05-22T06:55:14.227Z,68.01
2023-05-22T07:02:42.184Z,66.14
2023-05-22T07:06:02.486Z,64.18
2023-05-22T07:08:35.110Z,64.47
2023-05-22T07:11:14.253Z,63.41
2023-05-22T07:13:47.115Z,61.16
2023-05-22T07:16:26.763Z,59.56
2023-05-22T07:19:00.133Z,59.13
2023-05-22T07:21:39.436Z,56.99
2023-05-22T07:24:12.247Z,56.42
2023-05-22T07:26:46.851Z,57.08
2023-05-22T07:34:15.589Z,56.10
2023-05-22T07:36:49.158Z,57.89
2023-05-22T07:47:05.653Z,56.75
2023-05-22T07:49:40.816Z,54.77
2023-05-22T07:52:15.784Z,49.00
2023-05-22T07:55:33.438Z,50.95
2023-05-22T07:58:08.773Z,51.54
2023-05-22T08:01:25.007Z,48.28
2023-05-22T08:04:30.365Z,47.33
2023-05-22T08:07:02.821Z,48.42
2023-05-22T08:09:35.032Z,50.42
2023-05-22T08:12:49.005Z,50.11
2023-05-22T08:15:21.580Z,48.13
2023-05-22T08:22:26.437Z,47.37
2023-05-22T08:24:58.518Z,46.04
2023-05-22T08:32:08.501Z,45.74
2023-05-22T08:34:47.997Z,46.50
2023-05-22T08:37:21.300Z,46.57
2023-05-22T08:40:00.353Z,47.39
2023-05-22T08:42:32.570Z,48.01
2023-05-22T08:49:37.701Z,46.68
2023-05-22T08:55:37.298Z,44.36
2023-05-22T08:58:09.861Z,45.02
2023-05-22T09:00:42.353Z,44.97
2023-05-22T09:03:34.415Z,44.31
2023-05-22T09:09:43.426Z,44.09
2023-05-22T09:12:15.550Z,44.08
2023-05-22T09:15:09.943Z,44.06
2023-05-22T09:17:43.502Z,42.89
2023-05-22T09:20:16.580Z,43.42
2023-05-22T09:23:02.893Z,43.85
2023-05-22T09:30:27.583Z,43.76
2023-05-22T09:33:02.024Z,43.46
2023-05-22T09:35:49.887Z,44.03
2023-05-22T09:38:31.422Z,43.64
2023-05-22T09:42:27.444Z,43.71
2023-05-22T09:49:21.684Z,43.84
2023-05-22T09:51:57.570Z,43.56
2023-05-22T09:55:13.683Z,44.11
2023-05-22T09:57:48.419Z,43.22
2023-05-22T10:00:21.765Z,43.13
2023-05-22T10:07:26.059Z,43.01
2023-05-22T10:23:10.960Z,42.32
2023-05-22T10:25:51.952Z,42.94
2023-05-22T10:35:50.362Z,42.01
2023-05-22T10:52:22.086Z,40.66
2023-05-22T10:54:57.607Z,41.71
2023-05-22T11:01:28.571Z,41.40
2023-05-22T11:08:39.581Z,39.69
2023-05-22T11:11:15.952Z,40.41
2023-05-22T11:14:33.665Z,40.72
2023-05-22T11:17:15.001Z,41.54
2023-05-22T11:25:38.155Z,40.38
2023-05-22T11:28:11.820Z,39.38
2023-05-22T11:30:44.780Z,39.55
2023-05-22T11:33:17.579Z,39.82
2023-05-22T11:39:42.318Z,38.28
2023-05-22T11:42:50.651Z,39.04
2023-05-22T11:45:23.359Z,39.12
2023-05-22T11:47:55.594Z,38.97
2023-05-22T11:53:58.170Z,38.55
2023-05-22T11:56:30.778Z,38.95
2023-05-22T12:02:57.655Z,38.00
2023-05-22T12:05:32.819Z,38.25
2023-05-22T12:08:50.117Z,38.92
2023-05-22T12:15:29.044Z,38.71
2023-05-22T12:18:01.917Z,39.62
2023-05-22T12:20:38.678Z,38.84
2023-05-22T12:23:14.086Z,38.91
2023-05-22T12:30:24.216Z,38.78
2023-05-22T12:41:37.618Z,38.20
2023-05-22T12:48:42.931Z,38.63
2023-05-22T12:51:41.622Z,38.98
2023-05-22T13:03:01.272Z,37.99
2023-05-22T13:05:50.404Z,38.12
2023-05-22T13:15:59.775Z,37.22
2023-05-22T13:18:32.447Z,36.92
2023-05-22T13:21:53.186Z,35.67
2023-05-22T13:24:25.666Z,37.27
2023-05-22T13:26:59.234Z,37.33
2023-05-22T13:38:26.767Z,36.61
2023-05-22T13:41:32.639Z,36.64
2023-05-22T13:53:04.055Z,36.02
2023-05-22T13:56:16.580Z,37.11
2023-05-22T14:03:17.809Z,35.88
2023-05-22T14:05:50.179Z,36.23
2023-05-22T14:08:22.201Z,36.12
2023-05-22T14:11:01.268Z,35.88
2023-05-22T14:13:58.670Z,35.93
2023-05-22T14:16:32.530Z,36.95
2023-05-22T14:19:05.026Z,36.96
2023-05-22T14:25:24.762Z,35.77
2023-05-22T14:31:51.938Z,36.40
2023-05-22T14:34:25.549Z,36.53
2023-05-22T14:36:58.418Z,36.68
2023-05-22T14:40:18.855Z,35.97
2023-05-22T14:45:50.115Z,36.41
2023-05-22T14:51:28.886Z,35.86
2023-05-22T14:54:02.127Z,35.89
2023-05-22T14:56:34.511Z,36.06
2023-05-22T14:59:07.985Z,36.73
2023-05-22T15:01:45.141Z,36.98
2023-05-22T15:04:42.564Z,36.54
2023-05-22T15:07:16.327Z,35.94
2023-05-22T15:10:00.943Z,36.79
2023-05-22T15:17:01.855Z,36.17
2023-05-22T15:19:34.006Z,36.58
2023-05-22T15:25:40.075Z,36.51
2023-05-22T15:28:12.473Z,36.28
2023-05-22T15:37:52.477Z,36.87
2023-05-22T15:44:10.838Z,37.06
2023-05-22T15:46:43.107Z,37.11
2023-05-22T15:49:15.352Z,37.28
2023-05-22T15:55:16.035Z,37.33
2023-05-22T16:01:29.580Z,37.92
2023-05-22T16:04:02.276Z,38.14
2023-05-22T16:06:34.408Z,37.71
2023-05-22T16:09:07.131Z,38.19
2023-05-22T16:11:42.138Z,38.00
2023-05-22T16:14:14.351Z,37.99
2023-05-22T16:16:46.507Z,38.32
2023-05-22T16:19:18.686Z,37.99
2023-05-22T16:21:50.804Z,37.87
2023-05-22T16:24:42.064Z,38.37
2023-05-22T16:27:14.194Z,38.39
2023-05-22T16:29:46.221Z,38.34
2023-05-22T16:32:42.086Z,38.57
2023-05-22T16:35:14.465Z,38.75
2023-05-22T16:38:14.786Z,38.55
2023-05-22T16:40:47.416Z,38.88
2023-05-22T16:43:21.857Z,38.97
2023-05-22T16:45:54.346Z,39.32
2023-05-22T16:48:27.127Z,39.41
2023-05-22T16:50:59.218Z,39.39
2023-05-22T16:53:31.344Z,39.93
2023-05-22T16:56:03.548Z,39.74
2023-05-22T16:58:35.745Z,40.06
2023-05-22T17:01:10.874Z,39.67
2023-05-22T17:03:43.809Z,39.82
2023-05-22T17:06:20.137Z,39.88
2023-05-22T17:08:53.154Z,40.34
2023-05-22T17:11:26.161Z,40.60
2023-05-22T17:13:58.293Z,41.18
2023-05-22T17:16:38.754Z,41.62
2023-05-22T17:19:11.197Z,42.13
2023-05-22T17:21:44.709Z,42.62
2023-05-22T17:24:16.992Z,42.89
2023-05-22T17:26:49.207Z,43.23
2023-05-22T17:29:22.116Z,43.89
2023-05-22T17:31:54.616Z,44.47
2023-05-22T17:34:34.347Z,45.15
2023-05-22T17:37:06.662Z,45.68
2023-05-22T17:39:39.098Z,45.93
2023-05-22T17:42:11.218Z,46.36
2023-05-22T17:44:47.766Z,46.82
2023-05-22T17:47:20.436Z,47.33
2023-05-22T17:49:52.550Z,47.45
2023-05-22T17:52:27.497Z,47.74
2023-05-22T17:58:32.682Z,49.15
2023-05-22T18:01:04.964Z,49.49
2023-05-22T18:03:37.252Z,49.73
2023-05-22T18:06:09.911Z,49.82
2023-05-22T18:08:43.959Z,50.53
2023-05-22T18:11:16.369Z,50.94
2023-05-22T18:13:48.911Z,51.18
2023-05-22T18:16:21.934Z,51.59
2023-05-22T18:18:54.449Z,52.05
2023-05-22T18:21:26.955Z,52.81
2023-05-22T18:23:59.646Z,52.91
2023-05-22T18:26:32.432Z,53.50
2023-05-22T18:29:15.020Z,54.13
2023-05-22T18:36:20.339Z,55.22
2023-05-22T18:43:36.488Z,56.31
2023-05-22T18:46:54.399Z,56.71
2023-05-22T18:49:33.405Z,57.03
2023-05-22T18:56:39.432Z,58.64
2023-05-22T18:59:18.546Z,59.01
2023-05-22T19:10:59.879Z,60.84
2023-05-22T19:13:32.913Z,61.24
2023-05-22T19:16:05.812Z,61.52
2023-05-22T19:18:38.565Z,61.92
2023-05-22T19:21:11.915Z,62.14
2023-05-22T19:23:44.111Z,62.63
2023-05-22T19:26:17.403Z,62.99
2023-05-22T19:28:49.635Z,63.27
2023-05-22T19:31:22.087Z,63.51
2023-05-22T19:33:54.187Z,63.75
2023-05-22T19:36:26.351Z,64.16
2023-05-22T19:39:00.004Z,64.32
2023-05-22T19:41:32.136Z,64.52
2023-05-22T19:44:05.333Z,64.98
2023-05-22T19:46:37.352Z,65.01
2023-05-22T19:49:09.496Z,65.35
2023-05-22T19:51:43.551Z,65.34
2023-05-22T19:54:16.474Z,65.70
2023-05-22T19:56:48.465Z,65.76
2023-05-22T19:59:21.542Z,65.95
2023-05-22T20:01:54.067Z,66.57
2023-05-22T20:04:59.503Z,66.49
2023-05-22T20:07:31.723Z,66.68
2023-05-22T20:10:06.516Z,67.32
2023-05-22T20:26:05.455Z,68.71
2023-05-22T20:28:47.752Z,68.77
2023-05-22T20:31:19.855Z,68.86
2023-05-22T20:34:26.662Z,69.16
2023-05-22T20:37:06.645Z,69.57
2023-05-22T20:39:38.769Z,69.59
2023-05-22T20:46:35.584Z,70.30
2023-05-22T20:49:07.702Z,70.39
2023-05-22T20:51:46.729Z,70.54
2023-05-22T20:54:18.918Z,70.72
2023-05-22T20:57:25.255Z,71.22
2023-05-22T21:03:58.912Z,71.97
2023-05-22T21:06:31.555Z,71.74
2023-05-22T21:09:10.273Z,71.90
2023-05-22T21:11:42.748Z,71.92
2023-05-22T21:14:14.849Z,72.38
2023-05-22T21:30:31.666Z,73.28
2023-05-22T21:33:05.121Z,73.62
2023-05-22T21:35:37.177Z,73.86
2023-05-22T21:38:15.760Z,73.93
2023-05-22T21:40:48.233Z,73.96
2023-05-22T21:47:31.572Z,74.60
2023-05-22T21:50:03.685Z,74.42
2023-05-22T21:52:42.270Z,74.37
2023-05-22T21:55:14.476Z,74.36
2023-05-22T21:57:46.705Z,74.67
2023-05-22T22:00:20.473Z,74.91
2023-05-22T22:11:05.546Z,75.58
2023-05-22T22:13:38.267Z,75.87
2023-05-22T22:16:16.605Z,75.92
2023-05-22T22:18:50.394Z,76.10
2023-05-22T22:21:22.923Z,76.07
2023-05-22T22:23:55.187Z,76.11
2023-05-22T22:30:21.537Z,76.50
2023-05-22T22:37:26.508Z,77.09
2023-05-22T22:40:05.723Z,76.92
2023-05-22T22:51:43.096Z,77.87
2023-05-22T22:54:56.672Z,77.70
2023-05-22T22:57:32.330Z,78.04
2023-05-22T23:00:05.698Z,78.10
2023-05-22T23:07:24.302Z,78.35
2023-05-22T23:18:14.010Z,78.82
2023-05-22T23:20:46.386Z,78.70
2023-05-22T23:28:42.673Z,79.11
2023-05-22T23:31:14.900Z,79.15
2023-05-22T23:38:57.577Z,79.30
2023-05-22T23:41:29.877Z,79.51
2023-05-22T23:44:02.104Z,79.40
2023-05-22T23:46:34.298Z,79.69
2023-05-22T23:49:56.708Z,79.68
2023-05-22T23:52:35.477Z,79.80
2023-05-22T23:55:09.452Z,79.77
2023-05-22T23:57:48.535Z,79.81
